Aral Moreira, Brazil
Current Conditions -  °F | °C
As of 6:00 PM on Sunday 23 Nov 2014 (Local Time) from SBCG Reporting Station
Moderate Rain Moderate Rain  
Wind Chill: 72°   Ceiling: 2100
Heat Index: 72°   Visibility: 2.5mi
Dew Point: 70°   Wind: 3mph
Humidity: 94%   Direction: 110°ESE
Pressure: NA   Gusts: NA
Location:  22.93°S, 55.64°W
Report Text: SBCG 232100Z 11003KT 4000 RA FEW009 BKN021 FEW035TCU 22/21 Q1011
Loading
Personal Weather Stations






























Interactive Weather Map New forecast layout! Learn more

10-Day Weather Forecast

Advertisements
Track Severe Weather on mobile